Ash Fork, AZ

3:22 AM MST on August 31, 2014 (GMT -0700)
3 mi. due north of Ash Fork AZ | Change Station
CLOSE
Current Station
Personal Weather Station
Location: Ash Fork, AZ
Elevation: 5395 ft
Nearby Weather Stations

Elev 5395 ft 35.27 °N, 112.49 °W | Updated 2 minutes ago

Clear
Clear
62.7 °F
Feels Like 62.7 °F
N
0.0
Wind Variable Wind from East
Gusts 0.0 mph

Today
High -- | Low -- °F
--% Chance of Precip.
Yesterday
High -- | Low -- °F
Precip. -- in
6:02 AM 6:58 PM
Waxing Crescent, 29% visible
Pressure 30.22 in
Visibility 10.0 miles
Clouds Clear
Dew Point 44 °F
Humidity 50%
Rainfall 0.00 in
Snow Depth Not available.
UV 0 out of 12
Pollen 7.10 out of 12
Air Quality Not available.
Flu Activity Not available.
METAR KCMR 311015Z AUTO 22013G18KT 10SM CLR 19/02 A3022 RMK AO1

More Conditions Fewer Conditions

Pressure 30.22 in
Visibility 10.0 miles
Clouds Clear
Dew Point 44 °F
Humidity 50%
Rainfall 0.00 in
Snow Depth Not available.
UV 0 out of 12
Pollen 7.10 out of 12
Air Quality Not available.
Flu Activity Not available.
METAR KCMR 311015Z AUTO 22013G18KT 10SM CLR 19/02 A3022 RMK AO1

More Conditions Fewer Conditions

10-Day Weather Forecast

Almanac

Astronomy

Aug. 31, 2014 Rise Set
Actual Time 6:02 AM MST 6:58 PM MST
Civil Twilight 5:36 AM MST 7:24 PM MST
Nautical Twilight 5:05 AM MST 7:55 PM MST
Astronomical Twilight 4:33 AM MST 8:26 PM MST
Moon 11:38 AM MST 10:30 PM MST
Length of Visible Light 13h 48m
Length of Day
12h 56m
Tomorrow will be 2m 7s shorter.
Waxing Crescent, 29% of the Moon is Illuminated
Today
Waxing Crescent
Sep 2
First Quarter
Sep 8
Full
Sep 15
Last Quarter
Sep 24
New

Today's Extremes

State Highs State Lows

Community

WunderPhotos

Upload Photos

1,748,834 photos uploaded!

Nearby

Snow Depth

Station Depth Elevation
White Horse Lake 0 in 7180 ft
Snowslide Canyon 0 in 9730 ft
Workman Creek 1 in 6900 ft
Maverick Fork 0 in 9200 ft
Wildcat 0 in 7850 ft

Earthquake Activity

City Distance Mag. Time & Date
No recent earthquake activity has been reported nearby.
Minimum magnitude displayed is 2.5.

Coastal Water Temperatures

Place Temperature
No Stations Reporting

Nearby Weather Stations